Tiempo atmosférico en la estación meteorológica de Buñol, València/Valencia (585 m.)

Fecha
DESCASC
Temp. máxima en grados centígrados (hora)
DESCASC
Temp. mínima en grados centígrados (hora)
DESCASC
Temp. media en grados centígrados
DESCASC
Racha de viento máxima en m/sg (hora)
DESCASC
Velocidad máxima media en intervalos de 10 minutos(hora)
DESCASC
Precipitaciones diarias en mm
DESCASC
Precipitaciones de 00:00 a 06:00 en mm
DESCASC
Precipitaciones de 06:00 a 12:00 en mm
DESCASC
Precipitaciones de 12:00 a 18:00 en mm
DESCASC
Precipitaciones de 18:00 a 24:00 en mm
DESCASC
21-09-2017 25.7 (14:40) 11.2 (07:50) 18.5 7.78 (17:40) 3.61 (16:40) 0 0 0 0 0
20-09-2017 26.3 (14:50) 11 (08:00) 18.6 7.22 (16:40) 3.89 (15:30) 0 0 0 0 0
19-09-2017 27.2 (16:00) 10 (07:00) 18.6 8.61 (12:40) 3.61 (12:40) 0 0 0 0 0
18-09-2017 27.1 (16:20) 10.6 (07:20) 18.9 11.11 (16:10) 4.17 (12:00) 0 0 0 0 0
17-09-2017 25.7 (16:40) 9.2 (00:00) 17.5 7.22 (14:20) 3.06 (14:20) 0 0 0 0 0
16-09-2017 19.5 (13:30) 10.4 (00:00) 14.9 6.11 (14:20) 3.33 (16:00) 0 0 0 0 0
15-09-2017 19.4 (02:40) 12.5 (00:00) 15.9 7.22 (14:20) 2.78 (15:10) 1 0 0 0 1
14-09-2017 32.4 (16:00) 14.2 (00:00) 23.3 8.61 (14:10) 3.89 (10:10) 0 0 0 0 0
13-09-2017 28.5 (15:30) 11.6 (00:00) 20.1 8.61 (16:10) 4.44 (16:30) 0 0 0 0 0
12-09-2017 27 (15:00) 13.4 (00:00) 20.2 7.5 (16:20) 3.33 (16:00) 0 0 0 0 0
11-09-2017 32.2 (16:10) 14.3 (00:00) 23.3 9.72 (11:00) 4.44 (11:30) 0 0 0 0 0
10-09-2017 24.6 (18:30) 11.9 (00:00) 18.3 12.78 (11:00) 4.72 (11:00) 0 0 0 0 0
09-09-2017 24.8 (16:40) 16 (00:00) 20.4 7.5 (13:40) 3.33 (11:40) 0 0 0 0 0
08-09-2017 28.6 (15:20) 16.4 (00:00) 22.5 7.5 (17:10) 3.61 (17:10) 0 0 0 0 0
07-09-2017 26.3 (14:30) 15.5 (00:00) 20.9 6.94 (14:50) 3.61 (14:50) 0 0 0 0 0
06-09-2017 26.4 (14:10) 16.3 (00:00) 21.3 7.78 (15:50) 4.17 (15:50) 0 0 0 0 0
05-09-2017 28.7 (14:40) 16.1 (00:00) 22.4 6.67 (17:30) 3.61 (17:30) 0 0 0 0 0
04-09-2017 28.8 (14:20) 13.1 (00:00) 20.9 9.72 (17:50) 4.44 (16:40) 0 0 0 0 0
03-09-2017 31.1 (18:10) 12.7 (00:00) 21.9 8.89 (15:30) 3.89 (15:30) 0 0 0 0 0
02-09-2017 28.3 (16:10) 15.5 (00:00) 21.9 8.33 (13:50) 3.33 (13:30) 0 0 0 0 0
01-09-2017 23.1 (16:10) 16.4 (00:00) 19.8 7.5 (16:50) 4.17 (17:00) 0.2 0 0 0 0.2
31-08-2017 25 (14:10) 16.8 (00:00) 20.9 7.5 (14:30) 4.44 (14:30) 0.2 0.2 0 0 0
30-08-2017 24.3 (19:00) 16 (00:00) 20.1 9.17 (13:30) 3.61 (13:30) 3.4 3.4 0 0 0
29-08-2017 21.8 (12:50) 16.1 (00:00) 18.9 8.06 (15:10) 2.78 (15:10) 20.6 1.8 0 7.8 11
28-08-2017 26.7 (15:00) 17.8 (00:00) 22.3 6.67 (12:30) 3.06 (11:20) 1 0 0 1 0
27-08-2017 27.2 (16:10) 17.5 (00:00) 22.4 7.22 (00:30) 2.78 (20:30) 0 0 0 0 0
26-08-2017 30.9 (14:20) 16.9 (00:00) 23.9 8.33 (15:00) 3.61 (15:20) 0 0 0 0 0
25-08-2017 29.5 (16:40) 14.5 (00:00) 22 7.22 (17:30) 3.61 (17:10) 0.2 0 0 0 0.2
24-08-2017 30.8 (15:20) 14.4 (00:00) 22.6 8.33 (17:40) 3.61 (16:30) 0 0 0 0 0

Gráficas

Temp. máximas Temp. mínimas Temp. medias Precipitaciones Rachas de viento máximas Velocidades máximas media en intervalos de 10 minutos

Datos horarios

Fecha y hora oficial Temperatura (ºC) Velocidad del viento (km/h) Dirección del viento Racha (km/h) Dirección de racha Precipitación (mm) Presión (hPa) Tendencia (hPa) Humedad (%)
2017-09-22 23:00:00 16.9 0 Calma 10 Sudeste 0 -- -- 86
2017-09-22 22:00:00 18.1 2 Sur 16 Sudeste 0 -- -- 86
2017-09-22 21:00:00 18.4 4 Sudeste 22 Sudeste 0 -- -- 85
2017-09-22 20:00:00 19 8 Sudeste 25 Sudeste 0 -- -- 81
2017-09-22 19:00:00 20.2 11 Sudeste 33 Sudeste 0 -- -- 68
2017-09-22 18:00:00 21.2 13 Sudeste 26 Este 0 -- -- 64
2017-09-22 17:00:00 22.1 11 Sudeste 30 Sudeste 0 -- -- 65
2017-09-22 16:00:00 23.9 8 Sudeste 25 Este 0 -- -- 60
2017-09-22 15:00:00 22.5 8 Sudeste 21 Este 0 -- -- 58
2017-09-22 14:00:00 21.9 6 Sudeste 23 Este 0 -- -- 62
2017-09-22 13:00:00 21.7 5 Nordeste 18 Sudeste 0 -- -- 64
2017-09-22 12:00:00 21.1 6 Sudeste 21 Este 0 -- -- 69
2017-09-22 11:00:00 20 7 Sudeste 17 Este 0 -- -- 75
2017-09-22 10:00:00 17.9 6 Sudeste 14 Este 0 -- -- 87
2017-09-22 09:00:00 17.1 2 Sudeste 10 Este 0 -- -- 92
2017-09-22 08:00:00 17 0 Calma 10 Este 0 -- -- 91
2017-09-22 07:00:00 17.2 3 Sudeste 13 Sudeste 0 -- -- 91
2017-09-22 06:00:00 17.1 2 Sudeste 8 Este 0 -- -- 91
2017-09-22 05:00:00 16.6 0 Calma 6 Este 0 -- -- 92
2017-09-22 04:00:00 16.6 0 Calma 3 Este 0 -- -- 90
2017-09-22 03:00:00 16.6 0 Calma 6 Sudeste 0 -- -- 91
2017-09-22 02:00:00 16.8 0 Calma 5 Sur 0 -- -- 90
2017-09-22 01:00:00 16.9 2 Sudeste 6 Nordeste 0 -- -- 90
2017-09-22 00:00:00 17 0 Calma 9 Sudeste 0 -- -- 89
2017-09-21 23:00:00 17.8 2 Sudeste 9 Sudeste 0 -- -- 87
2017-09-21 22:00:00 18.5 3 Sudeste 15 Sudeste 0 -- -- 85
2017-09-21 21:00:00 18.9 3 Sudeste 18 Sudeste 0 -- -- 83
2017-09-21 20:00:00 20.1 8 Sudeste 21 Sudeste 0 -- -- 80
2017-09-21 19:00:00 21.4 6 Sudeste 22 Este 0 -- -- 75
2017-09-21 18:00:00 22.7 11 Sudeste 28 Este 0 -- -- 72
2017-09-21 17:00:00 24.7 8 Sudeste 27 Este 0 -- -- 65
2017-09-21 16:00:00 25.3 9 Sudeste 23 Sudeste 0 -- -- 56
2017-09-21 15:00:00 25.4 10 Sudeste 20 Este 0 -- -- 55
2017-09-21 14:00:00 24.6 9 Sudeste 19 Sudeste 0 -- -- 55
2017-09-21 13:00:00 23.9 4 Sur 17 Sudeste 0 -- -- 62
2017-09-21 12:00:00 22.2 5 Sudeste 14 Sudeste 0 -- -- 69
2017-09-21 11:00:00 19.2 0 Calma 5 Sur 0 -- -- 83
2017-09-21 10:00:00 15.3 4 Norte 9 Norte 0 -- -- 92
2017-09-21 09:00:00 12 4 Norte 8 Noroeste 0 -- -- 94
2017-09-21 08:00:00 11.2 4 Noroeste 9 Noroeste 0 -- -- 95
2017-09-21 07:00:00 11.4 4 Norte 9 Noroeste 0 -- -- 94
2017-09-21 06:00:00 11.8 4 Norte 11 Noroeste 0 -- -- 94
2017-09-21 05:00:00 12.3 0 Calma 8 Norte 0 -- -- 93
2017-09-21 04:00:00 12.8 3 Noroeste 8 Noroeste 0 -- -- 93
2017-09-21 03:00:00 13.4 3 Noroeste 9 Noroeste 0 -- -- 93
2017-09-21 02:00:00 14.1 3 Noroeste 9 Noroeste 0 -- -- 92
2017-09-21 01:00:00 14.9 3 Noroeste 8 Noroeste 0 -- -- 91
2017-09-21 00:00:00 15.6 2 Noroeste 6 Noroeste 0 -- -- 89
2017-09-20 23:00:00 16.8 0 Calma 3 Sur 0 -- -- 87
2017-09-20 22:00:00 17.8 0 Calma 4 Sudeste 0 -- -- 83
2017-09-20 21:00:00 19 0 Calma 6 Sudeste 0 -- -- 81
2017-09-20 20:00:00 20.1 3 Sudeste 17 Sudeste 0 -- -- 79
2017-09-20 19:00:00 21.7 6 Sudeste 17 Sudeste 0 -- -- 73
2017-09-20 18:00:00 22.8 10 Sudeste 21 Sudeste 0 -- -- 68
2017-09-20 17:00:00 24.3 9 Sudeste 26 Sudeste 0 -- -- 62
2017-09-20 16:00:00 25.3 7 Sur 24 Sudeste 0 -- -- 50
2017-09-20 15:00:00 26.3 6 Sur 15 Sudeste 0 -- -- 49
2017-09-20 14:00:00 25 6 Sur 18 Este 0 -- -- 53
2017-09-20 13:00:00 22.9 8 Este 20 Sudeste 0 -- -- 61
2017-09-20 12:00:00 21.3 3 Sudeste 13 Sudeste 0 -- -- 66
2017-09-20 11:00:00 18.9 3 Sur 6 Sur 0 -- -- 76
2017-09-20 10:00:00 14.6 2 Norte 11 Noroeste 0 -- -- 91
2017-09-20 09:00:00 11.7 4 Norte 12 Noroeste 0 -- -- 94
2017-09-20 08:00:00 11 4 Noroeste 11 Norte 0 -- -- 93
2017-09-20 07:00:00 11.6 3 Noroeste 8 Norte 0 -- -- 93
2017-09-20 06:00:00 12.1 3 Noroeste 9 Noroeste 0 -- -- 92
2017-09-20 05:00:00 12.4 3 Norte 9 Norte 0 -- -- 91
2017-09-20 04:00:00 12.9 0 Calma 8 Noroeste 0 -- -- 89
2017-09-20 03:00:00 13.9 2 Noroeste 8 Noroeste 0 -- -- 89
2017-09-20 02:00:00 14.6 0 Calma 5 Norte 0 -- -- 87
2017-09-20 01:00:00 15.8 0 Calma 5 Noroeste 0 -- -- 83
2017-09-20 00:00:00 17.5 0 Calma 3 Sur 0 -- -- 82
2017-09-19 23:00:00 17.8 0 Calma 10 Este 0 -- -- 81
2017-09-19 22:00:00 18.4 3 Sudeste 10 Sudeste 0 -- -- 81
2017-09-19 21:00:00 18.7 3 Sudeste 9 Este 0 -- -- 79
2017-09-19 20:00:00 20.2 0 Calma 15 Sudeste 0 -- -- 72
2017-09-19 19:00:00 21.8 8 Sudeste 22 Este 0 -- -- 68
2017-09-19 18:00:00 23.9 7 Sudeste 28 Sudeste 0 -- -- 59
2017-09-19 17:00:00 26 8 Sudeste 22 Sudeste 0 -- -- 39
2017-09-19 16:00:00 27.2 7 Oeste 30 Norte 0 -- -- 30
2017-09-19 15:00:00 26.4 7 Oeste 24 Oeste 0 -- -- 33
2017-09-19 14:00:00 25.3 8 Oeste 26 Norte 0 -- -- 36
2017-09-19 13:00:00 23.7 9 Norte 31 Norte 0 -- -- 35
2017-09-19 12:00:00 22.1 9 Oeste 24 Oeste 0 -- -- 43
2017-09-19 11:00:00 19.4 6 Noroeste 22 Norte 0 -- -- 55
2017-09-19 10:00:00 15.2 10 Norte 23 Norte 0 -- -- 72
2017-09-19 09:00:00 11.8 10 Norte 18 Norte 0 -- -- 89
2017-09-19 08:00:00 10.2 8 Noroeste 18 Norte 0 -- -- 92
2017-09-19 07:00:00 10 8 Noroeste 16 Noroeste 0 -- -- 92
2017-09-19 06:00:00 10.5 6 Noroeste 15 Noroeste 0 -- -- 92
2017-09-19 05:00:00 11.3 6 Noroeste 14 Noroeste 0 -- -- 93
2017-09-19 04:00:00 11.2 6 Noroeste 13 Noroeste 0 -- -- 92
2017-09-19 03:00:00 12 3 Noroeste 10 Noroeste 0 -- -- 91
2017-09-19 02:00:00 12.9 4 Noroeste 8 Norte 0 -- -- 90
2017-09-19 01:00:00 13.8 3 Noroeste 8 Noroeste 0 -- -- 89
2017-09-19 00:00:00 14.9 0 Calma 5 Norte 0 -- -- 85
2017-09-18 23:00:00 15.9 0 Calma 4 Este 0 -- -- 81
2017-09-18 22:00:00 17 2 Este 9 Este 0 -- -- 80
2017-09-18 21:00:00 18.2 3 Sudeste 15 Sudeste 0 -- -- 79
2017-09-18 20:00:00 19.1 6 Sudeste 23 Sudeste 0 -- -- 70
2017-09-18 19:00:00 20.9 8 Sudeste 26 Sudeste 0 -- -- 69
2017-09-18 18:00:00 24.1 10 Sudeste 36 Noroeste 0 -- -- 51
2017-09-18 17:00:00 26 9 Noroeste 40 Sudoeste 0 -- -- 29
2017-09-18 16:00:00 26.6 13 Noroeste 36 Oeste 0 -- -- 27
2017-09-18 15:00:00 26.4 10 Oeste 32 Oeste 0 -- -- 28
2017-09-18 14:00:00 25.7 9 Oeste 32 Oeste 0 -- -- 27
2017-09-18 13:00:00 23.4 12 Noroeste 35 Noroeste 0 -- -- 30
2017-09-18 12:00:00 21.7 15 Noroeste 32 Oeste 0 -- -- 32
2017-09-18 11:00:00 19 10 Noroeste 30 Noroeste 0 -- -- 36
2017-09-18 10:00:00 15.8 9 Noroeste 21 Noroeste 0 -- -- 43
2017-09-18 09:00:00 12.8 10 Norte 22 Noroeste 0 -- -- 53
2017-09-18 08:00:00 11.7 9 Norte 17 Noroeste 0 -- -- 60
2017-09-18 07:00:00 10.9 5 Noroeste 14 Noroeste 0 -- -- 77
2017-09-18 06:00:00 11.5 6 Noroeste 15 Noroeste 0 -- -- 80
2017-09-18 05:00:00 10.9 8 Norte 16 Noroeste 0 -- -- 81
2017-09-18 04:00:00 10.9 5 Noroeste 13 Noroeste 0 -- -- 80
2017-09-18 03:00:00 11.6 6 Noroeste 14 Norte 0 -- -- 78
2017-09-18 02:00:00 12 6 Noroeste 15 Noroeste 0 -- -- 81
2017-09-18 01:00:00 12.5 5 Noroeste 12 Noroeste 0 -- -- 80
2017-09-18 00:00:00 13.3 4 Noroeste 9 Noroeste 0 -- -- 76
2017-09-17 23:00:00 14.8 3 Noroeste 8 Noroeste 0 -- -- 72
2017-09-17 22:00:00 17.5 0 Calma 3 Oeste 0 -- -- 74
2017-09-17 21:00:00 19.8 0 Calma 4 Sur 0 -- -- 69
2017-09-17 20:00:00 21.7 2 Sudeste 8 Sudeste 0 -- -- 65
2017-09-17 19:00:00 23.9 3 Sur 21 Noroeste 0 -- -- 56
2017-09-17 18:00:00 25.7 7 Oeste 22 Noroeste 0 -- -- 24
2017-09-17 17:00:00 25.6 8 Noroeste 22 Noroeste 0 -- -- 26
2017-09-17 16:00:00 25.1 5 Oeste 24 Oeste 0 -- -- 31
2017-09-17 15:00:00 24.8 8 Sudoeste 26 Norte 0 -- -- 32
2017-09-17 14:00:00 23.6 6 Oeste 23 Sudoeste 0 -- -- 37
2017-09-17 13:00:00 21.9 7 Oeste 23 Oeste 0 -- -- 44
2017-09-17 12:00:00 19.2 5 Noroeste 19 Norte 0 -- -- 59
2017-09-17 11:00:00 15.8 4 Noroeste 17 Noroeste 0 -- -- 79
2017-09-17 10:00:00 13.7 6 Noroeste 15 Oeste 0 -- -- 89
2017-09-17 09:00:00 9.7 3 Norte 8 Noroeste 0 -- -- 94
2017-09-17 08:00:00 9.3 2 Norte 10 Noroeste 0 -- -- 93
2017-09-17 07:00:00 9.6 3 Norte 8 Norte 0 -- -- 93
2017-09-17 06:00:00 9.8 2 Noroeste 7 Noroeste 0 -- -- 93
2017-09-17 05:00:00 10.8 0 Calma 9 Norte 0 -- -- 91
2017-09-17 04:00:00 10.7 0 Calma 6 Norte 0 -- -- 92
2017-09-17 03:00:00 10.5 2 Norte 8 Norte 0 -- -- 90
2017-09-17 02:00:00 10.3 2 Norte 6 Norte 0 -- -- 91
2017-09-17 01:00:00 10 0 Calma 6 Noroeste 0 -- -- 89
2017-09-17 00:00:00 10.6 0 Calma 3 Nordeste 0 -- -- 87
2017-09-16 23:00:00 11.9 0 Calma 3 Norte 0 -- -- 82
2017-09-16 22:00:00 12.4 0 Calma 2 Sudoeste 0 -- -- 80
2017-09-16 21:00:00 13.9 0 Calma 6 Sudeste 0 -- -- 74
2017-09-16 20:00:00 15.6 0 Calma 13 Sudeste 0 -- -- 72
2017-09-16 19:00:00 16.9 4 Sur 17 Este 0 -- -- 67
2017-09-16 18:00:00 17.7 4 Sudeste 21 Sudeste 0 -- -- 66
2017-09-16 17:00:00 17.6 4 Sur 21 Este 0 -- -- 63
2017-09-16 16:00:00 18.1 12 Sudeste 21 Sudeste 0 -- -- 63
2017-09-16 15:00:00 18.1 4 Este 22 Este 0 -- -- 67
2017-09-16 14:00:00 19 4 Sur 16 Sudoeste 0 -- -- 64
2017-09-16 13:00:00 18.4 6 Sur 15 Sur 0 -- -- 58
2017-09-16 12:00:00 17.1 5 Sur 12 Este 0 -- -- 65
2017-09-16 11:00:00 15.1 4 Sudeste 10 Sudeste 0 -- -- 74
2017-09-16 10:00:00 12.8 4 Noroeste 9 Noroeste 0 -- -- 83
2017-09-16 09:00:00 11.1 3 Noroeste 8 Noroeste 0 -- -- 91
2017-09-16 08:00:00 10.6 2 Noroeste 10 Norte 0 -- -- 92
2017-09-16 07:00:00 11.4 2 Noroeste 6 Noroeste 0 -- -- 95
2017-09-16 06:00:00 11.8 2 Noroeste 5 Oeste 0 -- -- 96
2017-09-16 05:00:00 11.4 0 Calma 7 Noroeste 0 -- -- 96
2017-09-16 04:00:00 11.1 2 Noroeste 6 Norte 0 -- -- 95
2017-09-16 03:00:00 11.6 0 Calma 3 Este 0 -- -- 93
2017-09-16 02:00:00 12.2 0 Calma 4 Sudeste 0 -- -- 92
2017-09-16 01:00:00 12.5 0 Calma 5 Sudeste 0 -- -- 95
2017-09-16 00:00:00 12.5 0 Calma 6 Sur 0 -- -- 95
2017-09-15 23:00:00 12.9 0 Calma 4 Sur 0 -- -- 95
2017-09-15 22:00:00 13 0 Calma 11 Sudeste 0 -- -- 94
2017-09-15 21:00:00 13.1 3 Sudeste 12 Este 0.6 -- -- 95
2017-09-15 20:00:00 13.4 3 Sudeste 12 Sudeste 0.2 -- -- 94
2017-09-15 19:00:00 13.7 3 Sur 17 Sudeste 0.2 -- -- 93
2017-09-15 18:00:00 14.3 6 Sudeste 22 Sudeste 0 -- -- 90
2017-09-15 17:00:00 15.3 8 Sudeste 25 Sudeste 0 -- -- 85
2017-09-15 16:00:00 15.7 8 Sudeste 25 Sudeste 0 -- -- 84
2017-09-15 15:00:00 16.1 9 Sudeste 26 Sudeste 0 -- -- 83
2017-09-15 14:00:00 16.8 3 Sur 19 Este 0 -- -- 79
2017-09-15 13:00:00 17 10 Sudeste 22 Sudeste 0 -- -- 79
2017-09-15 12:00:00 17.1 6 Sudeste 17 Este 0 -- -- 81
2017-09-15 11:00:00 16.9 6 Sudeste 20 Sudeste 0 -- -- 83
2017-09-15 10:00:00 17.3 5 Sudeste 12 Sudeste 0 -- -- 81
2017-09-15 09:00:00 17 3 Sur 10 Sur 0 -- -- 71
2017-09-15 08:00:00 17 4 Sudeste 9 Sudeste 0 -- -- 69
2017-09-15 07:00:00 17.2 4 Sudeste 10 Sudeste 0 -- -- 70
2017-09-15 06:00:00 17.5 3 Sudeste 6 Sudeste 0 -- -- 70
2017-09-15 05:00:00 17.9 2 Sur 15 Sudeste 0 -- -- 70
2017-09-15 04:00:00 18.2 5 Sudeste 21 Este 0 -- -- 71
2017-09-15 03:00:00 19.3 9 Sudeste 25 Sudeste 0 -- -- 82
2017-09-15 02:00:00 18.9 3 Sur 10 Sur 0 -- -- 84
2017-09-15 01:00:00 19.2 3 Sudeste 14 Sudeste 0 -- -- 78
2017-09-15 00:00:00 18.8 3 Sudeste 8 Este 0 -- -- 74
2017-09-14 23:00:00 19 2 Sudeste 5 Este 0 -- -- 71
2017-09-14 22:00:00 19.8 0 Calma 7 Este 0 -- -- 67
2017-09-14 21:00:00 21.1 2 Sudeste 13 Sudeste 0 -- -- 64
2017-09-14 20:00:00 22.7 5 Sudeste 19 Sudeste 0 -- -- 59
2017-09-14 19:00:00 24.2 7 Sudeste 27 Sudeste 0 -- -- 54
2017-09-14 18:00:00 28.4 9 Sudeste 27 Este 0 -- -- 52
2017-09-14 17:00:00 32.2 6 Oeste 25 Noroeste 0 -- -- 24
2017-09-14 16:00:00 32.4 9 Oeste 28 Norte 0 -- -- 24
2017-09-14 15:00:00 31.8 12 Noroeste 31 Oeste 0 -- -- 27
2017-09-14 14:00:00 30.7 10 Noroeste 29 Oeste 0 -- -- 30
2017-09-14 13:00:00 28.4 9 Oeste 24 Noroeste 0 -- -- 36
2017-09-14 12:00:00 26.1 9 Noroeste 27 Noroeste 0 -- -- 41
2017-09-14 11:00:00 23.9 12 Noroeste 26 Noroeste 0 -- -- 49
2017-09-14 10:00:00 20.6 13 Noroeste 23 Noroeste 0 -- -- 64
2017-09-14 09:00:00 17.1 9 Noroeste 17 Noroeste 0 -- -- 79
2017-09-14 08:00:00 15.8 9 Noroeste 17 Noroeste 0 -- -- 82
2017-09-14 07:00:00 16 8 Noroeste 18 Noroeste 0 -- -- 81
2017-09-14 06:00:00 16.3 9 Noroeste 20 Noroeste 0 -- -- 79
2017-09-14 05:00:00 15.3 11 Noroeste 23 Noroeste 0 -- -- 84
2017-09-14 04:00:00 14.2 5 Norte 14 Norte 0 -- -- 86
2017-09-14 03:00:00 14.5 6 Noroeste 15 Noroeste 0 -- -- 86
2017-09-14 02:00:00 15 4 Norte 10 Norte 0 -- -- 84
2017-09-14 01:00:00 15.7 5 Norte 11 Noroeste 0 -- -- 82
2017-09-14 00:00:00 16.7 5 Noroeste 10 Noroeste 0 -- -- 78
2017-09-13 23:00:00 17.9 2 Noroeste 10 Norte 0 -- -- 74
2017-09-13 22:00:00 19.4 3 Noroeste 7 Noroeste 0 -- -- 74
2017-09-13 21:00:00 21.4 0 Calma 8 Sudeste 0 -- -- 68
2017-09-13 20:00:00 23.3 2 Sudeste 14 Sudeste 0 -- -- 65
2017-09-13 19:00:00 24.6 5 Sudeste 21 Sudeste 0 -- -- 62
2017-09-13 18:00:00 25.6 13 Sudeste 28 Sudeste 0 -- -- 60
2017-09-13 17:00:00 26.6 15 Sudeste 31 Este 0 -- -- 57
2017-09-13 16:00:00 28.5 7 Sudeste 23 Sudeste 0 -- -- 46
2017-09-13 15:00:00 27.9 10 Sudeste 25 Sudeste 0 -- -- 49
2017-09-13 14:00:00 27.1 9 Sudeste 21 Sudeste 0 -- -- 50
2017-09-13 13:00:00 26.4 8 Sudeste 18 Este 0 -- -- 51
2017-09-13 12:00:00 24.8 6 Sur 15 Sudeste 0 -- -- 54
2017-09-13 11:00:00 21.9 4 Sur 9 Sur 0 -- -- 68
2017-09-13 10:00:00 17.2 4 Noroeste 9 Noroeste 0 -- -- 81
2017-09-13 09:00:00 13.2 6 Norte 12 Noroeste 0 -- -- 87
2017-09-13 08:00:00 11.9 5 Noroeste 14 Noroeste 0 -- -- 88
2017-09-13 07:00:00 11.7 5 Norte 14 Noroeste 0 -- -- 88
2017-09-13 06:00:00 11.7 4 Norte 10 Noroeste 0 -- -- 88
2017-09-13 05:00:00 11.8 4 Noroeste 10 Noroeste 0 -- -- 87
2017-09-13 04:00:00 12.3 3 Noroeste 10 Noroeste 0 -- -- 86
2017-09-13 03:00:00 12.6 3 Noroeste 6 Noroeste 0 -- -- 86
2017-09-13 02:00:00 13.4 4 Noroeste 10 Norte 0 -- -- 84
2017-09-13 01:00:00 14.1 0 Calma 8 Noroeste 0 -- -- 81
2017-09-13 00:00:00 14.7 3 Norte 6 Norte 0 -- -- 80
2017-09-12 23:00:00 15.8 0 Calma 5 Noroeste 0 -- -- 78
2017-09-12 22:00:00 17.5 0 Calma 5 Sudeste 0 -- -- 73
2017-09-12 21:00:00 18.9 3 Sudeste 12 Sudeste 0 -- -- 71
2017-09-12 20:00:00 20.2 4 Sudeste 15 Sudeste 0 -- -- 68
2017-09-12 19:00:00 22 5 Sudeste 26 Sudeste 0 -- -- 64
2017-09-12 18:00:00 23.8 8 Sudeste 22 Sudeste 0 -- -- 60
2017-09-12 17:00:00 24.7 8 Sur 27 Sudeste 0 -- -- 58
2017-09-12 16:00:00 25 12 Sudeste 26 Sudeste 0 -- -- 60
2017-09-12 15:00:00 27 6 Sudeste 23 Este 0 -- -- 48
2017-09-12 14:00:00 26.4 6 Sudeste 22 Sudeste 0 -- -- 42
2017-09-12 13:00:00 23.4 7 Sudeste 15 Este 0 -- -- 49
2017-09-12 12:00:00 21.6 3 Sur 9 Sur 0 -- -- 53
2017-09-12 11:00:00 20 0 Calma 9 Noroeste 0 -- -- 55
2017-09-12 10:00:00 17.6 6 Noroeste 11 Norte 0 -- -- 60
2017-09-12 09:00:00 14.3 4 Norte 10 Norte 0 -- -- 67
2017-09-12 08:00:00 13.6 5 Norte 13 Norte 0 -- -- 65
2017-09-12 07:00:00 14.6 4 Noroeste 9 Norte 0 -- -- 61
2017-09-12 06:00:00 15.1 3 Noroeste 9 Norte 0 -- -- 59
2017-09-12 05:00:00 15.6 5 Noroeste 12 Noroeste 0 -- -- 57
2017-09-12 04:00:00 16.5 4 Noroeste 13 Norte 0 -- -- 54
2017-09-12 03:00:00 16.8 8 Norte 15 Noroeste 0 -- -- 52
2017-09-12 02:00:00 16.8 6 Noroeste 13 Norte 0 -- -- 52
2017-09-12 01:00:00 17.2 3 Noroeste 7 Noroeste 0 -- -- 51
2017-09-12 00:00:00 18.1 3 Norte 6 Norte 0 -- -- 49
2017-09-11 23:00:00 19.6 0 Calma 5 Sudoeste 0 -- -- 43
2017-09-11 22:00:00 21.7 0 Calma 4 Sudoeste 0 -- -- 37
2017-09-11 21:00:00 25.5 0 Calma 17 Noroeste 0 -- -- 30
2017-09-11 20:00:00 28.7 8 Noroeste 27 Oeste 0 -- -- 24
2017-09-11 19:00:00 30.5 12 Oeste 34 Oeste 0 -- -- 23
2017-09-11 18:00:00 31.4 11 Noroeste 31 Noroeste 0 -- -- 24
2017-09-11 17:00:00 31.9 12 Noroeste 33 Oeste 0 -- -- 24
2017-09-11 16:00:00 31.8 9 Oeste 30 Oeste 0 -- -- 26
2017-09-11 15:00:00 31 11 Noroeste 31 Sudoeste 0 -- -- 29
2017-09-11 14:00:00 29.2 13 Noroeste 31 Noroeste 0 -- -- 32
2017-09-11 13:00:00 27.8 11 Noroeste 31 Oeste 0 -- -- 33
2017-09-11 12:00:00 25.7 10 Oeste 34 Noroeste 0 -- -- 36
2017-09-11 11:00:00 22.4 15 Noroeste 35 Oeste 0 -- -- 37
2017-09-11 10:00:00 19.9 10 Noroeste 25 Oeste 0 -- -- 40
2017-09-11 09:00:00 16.9 10 Oeste 22 Noroeste 0 -- -- 45
2017-09-11 08:00:00 16.2 12 Noroeste 26 Noroeste 0 -- -- 45
2017-09-11 07:00:00 16.5 9 Noroeste 32 Noroeste 0 -- -- 44
2017-09-11 06:00:00 16.3 5 Oeste 16 Oeste 0 -- -- 44
2017-09-11 05:00:00 15.9 4 Noroeste 15 Oeste 0 -- -- 46
2017-09-11 04:00:00 16.5 8 Noroeste 21 Noroeste 0 -- -- 44
2017-09-11 03:00:00 17.4 6 Norte 18 Noroeste 0 -- -- 42
2017-09-11 02:00:00 17.2 7 Noroeste 21 Norte 0 -- -- 44
2017-09-11 01:00:00 14.8 0 Calma 11 Noroeste 0 -- -- 52
2017-09-11 00:00:00 14.6 0 Calma 8 Noroeste 0 -- -- 55
2017-09-10 23:00:00 15.6 2 Norte 5 Noroeste 0 -- -- 52
2017-09-10 22:00:00 16.9 2 Oeste 8 Noroeste 0 -- -- 46
2017-09-10 21:00:00 19.3 0 Calma 5 Noroeste 0 -- -- 41
2017-09-10 20:00:00 23 2 Noroeste 16 Norte 0 -- -- 34
2017-09-10 19:00:00 24.2 6 Norte 24 Noroeste 0 -- -- 31
2017-09-10 18:00:00 24.3 9 Noroeste 29 Norte 0 -- -- 32
2017-09-10 17:00:00 23.4 12 Norte 30 Noroeste 0 -- -- 33
2017-09-10 16:00:00 23.8 12 Norte 34 Norte 0 -- -- 32
2017-09-10 15:00:00 23.8 12 Norte 33 Norte 0 -- -- 33
2017-09-10 14:00:00 22.7 13 Noroeste 31 Norte 0 -- -- 35
2017-09-10 13:00:00 21.5 9 Noroeste 29 Oeste 0 -- -- 38
2017-09-10 12:00:00 19.8 8 Noroeste 45 Noroeste 0 -- -- 42
2017-09-10 11:00:00 17.9 17 Noroeste 46 Norte 0 -- -- 44
2017-09-10 10:00:00 15.8 15 Noroeste 33 Noroeste 0 -- -- 51
2017-09-10 09:00:00 13.5 6 Noroeste 22 Noroeste 0 -- -- 59
2017-09-10 08:00:00 12.9 5 Noroeste 30 Sudoeste 0 -- -- 60
2017-09-10 07:00:00 13.6 9 Noroeste 35 Noroeste 0 -- -- 56
2017-09-10 06:00:00 12.7 7 Noroeste 27 Norte 0 -- -- 62
2017-09-10 05:00:00 12.2 3 Noroeste 12 Oeste 0 -- -- 69
2017-09-10 04:00:00 13 5 Noroeste 15 Noroeste 0 -- -- 68
2017-09-10 03:00:00 13.7 4 Noroeste 13 Oeste 0 -- -- 67
2017-09-10 02:00:00 14.9 5 Noroeste 16 Noroeste 0 -- -- 65
2017-09-10 01:00:00 16.3 4 Noroeste 15 Oeste 0 -- -- 82
2017-09-10 00:00:00 16 0 Calma 3 Nordeste 0 -- -- 84
2017-09-09 23:00:00 16.1 0 Calma 7 Este 0 -- -- 83
2017-09-09 22:00:00 16.8 0 Calma 7 Sudeste 0 -- -- 79
2017-09-09 21:00:00 18.3 3 Sudeste 12 Sur 0 -- -- 77
2017-09-09 20:00:00 20 2 Sur 14 Este 0 -- -- 73
2017-09-09 19:00:00 21.5 2 Sudeste 15 Sudeste 0 -- -- 61
2017-09-09 18:00:00 23.4 4 Norte 24 Noroeste 0 -- -- 41
2017-09-09 17:00:00 24.5 11 Noroeste 23 Noroeste 0 -- -- 37
2017-09-09 16:00:00 24.5 8 Oeste 23 Sudoeste 0 -- -- 37
2017-09-09 15:00:00 22.2 4 Noroeste 26 Oeste 0 -- -- 38
2017-09-09 14:00:00 21.2 10 Oeste 27 Noroeste 0 -- -- 38
2017-09-09 13:00:00 20.1 8 Noroeste 23 Noroeste 0 -- -- 42
2017-09-09 12:00:00 19.3 10 Norte 24 Norte 0 -- -- 47
2017-09-09 11:00:00 18.3 8 Norte 19 Norte 0 -- -- 50
2017-09-09 10:00:00 17.3 9 Norte 21 Norte 0 -- -- 55
2017-09-09 09:00:00 17.3 6 Noroeste 23 Noroeste 0 -- -- 58
2017-09-09 08:00:00 17.4 9 Norte 21 Norte 0 -- -- 76
2017-09-09 07:00:00 17.5 7 Noroeste 18 Noroeste 0 -- -- 94
2017-09-09 06:00:00 17.7 9 Norte 23 Noroeste 0 -- -- 94
2017-09-09 05:00:00 17.2 4 Noroeste 10 Noroeste 0 -- -- 93
2017-09-09 04:00:00 18.3 4 Noroeste 14 Noroeste 0 -- -- 92
2017-09-09 03:00:00 18.3 7 Noroeste 15 Norte 0 -- -- 96
2017-09-09 02:00:00 18.3 3 Noroeste 8 Noroeste 0 -- -- 92
2017-09-09 01:00:00 18.7 3 Noroeste 6 Oeste 0 -- -- 90
2017-09-09 00:00:00 19.8 0 Calma 2 Oeste 0 -- -- 87
2017-09-08 23:00:00 21.1 0 Calma 6 Nordeste 0 -- -- 85
2017-09-08 22:00:00 22 3 Nordeste 10 Sudeste 0 -- -- 86
2017-09-08 21:00:00 22.9 3 Sudeste 13 Sudeste 0 -- -- 83
2017-09-08 20:00:00 24 5 Sudeste 15 Sudeste 0 -- -- 80
2017-09-08 19:00:00 25.2 5 Sur 18 Este 0 -- -- 75
2017-09-08 18:00:00 26 8 Sudeste 27 Sudeste 0 -- -- 71
2017-09-08 17:00:00 27.6 11 Sudeste 25 Sudeste 0 -- -- 65
2017-09-08 16:00:00 28.4 6 Sur 17 Sudeste 0 -- -- 57
2017-09-08 15:00:00 28.4 7 Sur 21 Este 0 -- -- 54
2017-09-08 14:00:00 26.3 3 Sur 11 Sudeste 0 -- -- 62
2017-09-08 13:00:00 24.9 4 Nordeste 11 Sudeste 0 -- -- 68
2017-09-08 12:00:00 22.7 3 Nordeste 14 Noroeste 0 -- -- 77
2017-09-08 11:00:00 21.3 4 Noroeste 14 Noroeste 0 -- -- 82
2017-09-08 10:00:00 19.2 5 Norte 14 Noroeste 0 -- -- 91
2017-09-08 09:00:00 17.5 7 Norte 14 Norte 0 -- -- 96
2017-09-08 08:00:00 16.5 6 Noroeste 14 Noroeste 0 -- -- 97
2017-09-08 07:00:00 16.5 4 Norte 12 Noroeste 0 -- -- 97
2017-09-08 06:00:00 17.2 4 Norte 14 Norte 0 -- -- 96
2017-09-08 05:00:00 17.9 4 Norte 9 Noroeste 0 -- -- 94
2017-09-08 04:00:00 18.6 0 Calma 7 Norte 0 -- -- 93
2017-09-08 03:00:00 18.9 2 Norte 8 Norte 0 -- -- 93
2017-09-08 02:00:00 19.2 0 Calma 3 Noroeste 0 -- -- 88
2017-09-08 01:00:00 20.5 0 Calma 4 Sudeste 0 -- -- 88
2017-09-08 00:00:00 20.9 0 Calma 4 Sur 0 -- -- 87
2017-09-07 23:00:00 20.9 0 Calma 8 Nordeste 0 -- -- 87
2017-09-07 22:00:00 21.3 0 Calma 6 Sudeste 0 -- -- 86
2017-09-07 21:00:00 21.6 0 Calma 11 Sudeste 0 -- -- 85
2017-09-07 20:00:00 22.2 0 Calma 12 Sudeste 0 -- -- 82
2017-09-07 19:00:00 22.7 8 Sudeste 17 Sudeste 0 -- -- 79
2017-09-07 18:00:00 24.3 8 Sudeste 19 Sudeste 0 -- -- 72
2017-09-07 17:00:00 25.3 6 Sur 21 Este 0 -- -- 68
2017-09-07 16:00:00 25.9 5 Sur 22 Sudeste 0 -- -- 65
2017-09-07 15:00:00 24.9 9 Sudeste 25 Sudeste 0 -- -- 66
2017-09-07 14:00:00 25.4 5 Sur 14 Sudeste 0 -- -- 65
2017-09-07 13:00:00 24.2 3 Sur 18 Este 0 -- -- 69
2017-09-07 12:00:00 21.8 6 Sudeste 12 Este 0 -- -- 75
2017-09-07 11:00:00 21.1 5 Sudeste 11 Sudeste 0 -- -- 78
2017-09-07 10:00:00 19.3 0 Calma 3 Noroeste 0 -- -- 88
2017-09-07 09:00:00 17.9 0 Calma 4 Norte 0 -- -- 93
2017-09-07 08:00:00 17.2 0 Calma 7 Norte 0 -- -- 93
2017-09-07 07:00:00 16.5 0 Calma 7 Noroeste 0 -- -- 94
2017-09-07 06:00:00 15.9 3 Noroeste 8 Noroeste 0 -- -- 95
2017-09-07 05:00:00 15.5 4 Norte 9 Noroeste 0 -- -- 94
2017-09-07 04:00:00 15.7 3 Noroeste 8 Noroeste 0 -- -- 93
2017-09-07 03:00:00 16.2 3 Norte 6 Norte 0 -- -- 93
2017-09-07 02:00:00 16.9 2 Noroeste 8 Norte 0 -- -- 91
2017-09-07 01:00:00 17.4 0 Calma 6 Norte 0 -- -- 89
2017-09-07 00:00:00 17.8 2 Noroeste 6 Norte 0 -- -- 87
2017-09-06 23:00:00 18.7 0 Calma 3 Nordeste 0 -- -- 88
2017-09-06 22:00:00 19.3 0 Calma 5 Noroeste 0 -- -- 87
2017-09-06 21:00:00 20.3 0 Calma 4 Este 0 -- -- 88
2017-09-06 20:00:00 21 2 Sudeste 12 Sudeste 0 -- -- 87
2017-09-06 19:00:00 21.6 2 Sur 18 Norte 0 -- -- 82
2017-09-06 18:00:00 22.5 4 Sudeste 16 Este 0 -- -- 83
2017-09-06 17:00:00 23.6 6 Sudeste 21 Este 0 -- -- 73
2017-09-06 16:00:00 25.4 14 Sudeste 28 Sudeste 0 -- -- 69
2017-09-06 15:00:00 26.4 13 Sudeste 26 Sudeste 0 -- -- 63
2017-09-06 14:00:00 26.3 4 Sur 20 Sudeste 0 -- -- 65
2017-09-06 13:00:00 25 5 Sudeste 20 Sudeste 0 -- -- 72
2017-09-06 12:00:00 25 6 Sudeste 19 Sudeste 0 -- -- 71
2017-09-06 11:00:00 23.7 5 Sudeste 18 Sudeste 0 -- -- 75
2017-09-06 10:00:00 20.3 3 Sur 7 Sudeste 0 -- -- 90
2017-09-06 09:00:00 17.6 3 Norte 5 Norte 0 -- -- 93
2017-09-06 08:00:00 16.5 3 Norte 6 Norte 0 -- -- 94
2017-09-06 07:00:00 16.4 3 Noroeste 9 Norte 0 -- -- 94
2017-09-06 06:00:00 16.6 4 Noroeste 10 Noroeste 0 -- -- 94
2017-09-06 05:00:00 16.7 3 Noroeste 10 Noroeste 0 -- -- 94
2017-09-06 04:00:00 16.8 4 Noroeste 12 Norte 0 -- -- 93
2017-09-06 03:00:00 17.1 4 Noroeste 10 Norte 0 -- -- 92
2017-09-06 02:00:00 17.6 3 Noroeste 9 Norte 0 -- -- 91
2017-09-06 01:00:00 18.8 0 Calma 3 Norte 0 -- -- 87
2017-09-06 00:00:00 19.8 0 Calma 2 Noroeste 0 -- -- 86
2017-09-05 23:00:00 20.4 0 Calma 4 Este 0 -- -- 85
2017-09-05 22:00:00 21.6 0 Calma 9 Este 0 -- -- 82
2017-09-05 21:00:00 22.8 3 Sudeste 10 Sudeste 0 -- -- 78
2017-09-05 20:00:00 24.4 5 Sudeste 16 Sudeste 0 -- -- 73
2017-09-05 19:00:00 26 4 Sur 16 Sudeste 0 -- -- 68
2017-09-05 18:00:00 26.9 8 Sudeste 24 Sudeste 0 -- -- 66
2017-09-05 17:00:00 26.8 7 Sudeste 18 Sudeste 0 -- -- 64
2017-09-05 16:00:00 27.2 9 Sudeste 21 Sudeste 0 -- -- 62
2017-09-05 15:00:00 27.9 6 Sudeste 15 Este 0 -- -- 59
2017-09-05 14:00:00 27.6 5 Sur 20 Sudeste 0 -- -- 59
2017-09-05 13:00:00 25.3 5 Sudeste 14 Este 0 -- -- 66
2017-09-05 12:00:00 23.9 4 Sur 12 Sudoeste 0 -- -- 70
2017-09-05 11:00:00 21.7 2 Sur 10 Sudeste 0 -- -- 82
2017-09-05 10:00:00 19.3 0 Calma 3 Noroeste 0 -- -- 93
2017-09-05 09:00:00 17.4 0 Calma 5 Noroeste 0 -- -- 94
2017-09-05 08:00:00 16.4 2 Norte 9 Norte 0 -- -- 95
2017-09-05 07:00:00 16.3 0 Calma 6 Noroeste 0 -- -- 93
2017-09-05 06:00:00 16.8 2 Norte 6 Norte 0 -- -- 93
2017-09-05 05:00:00 16.9 0 Calma 5 Noroeste 0 -- -- 92
2017-09-05 04:00:00 17.9 0 Calma 2 Oeste 0 -- -- 89
2017-09-05 03:00:00 18.8 0 Calma 3 Norte 0 -- -- 88
2017-09-05 02:00:00 19.8 0 Calma 8 Sudeste 0 -- -- 88
2017-09-05 01:00:00 20.5 3 Este 13 Este 0 -- -- 88
2017-09-05 00:00:00 20.9 3 Sudeste 15 Sudeste 0 -- -- 86
2017-09-04 23:00:00 21 8 Sudeste 23 Este 0 -- -- 86
2017-09-04 22:00:00 21.3 6 Sudeste 24 Sudeste 0 -- -- 86
2017-09-04 21:00:00 21.9 4 Sudeste 21 Sudeste 0 -- -- 83
2017-09-04 20:00:00 22.9 5 Sudeste 25 Sudeste 0 -- -- 77
2017-09-04 19:00:00 24.3 9 Sudeste 35 Este 0 -- -- 71
2017-09-04 18:00:00 25.2 11 Sudeste 35 Este 0 -- -- 64
2017-09-04 17:00:00 26.8 12 Sudeste 33 Este 0 -- -- 60
2017-09-04 16:00:00 27.8 11 Sudeste 29 Sudeste 0 -- -- 54
2017-09-04 15:00:00 28.4 13 Sudeste 26 Sudeste 0 -- -- 46
2017-09-04 14:00:00 27.9 11 Sudeste 21 Este 0 -- -- 50
2017-09-04 13:00:00 27.5 6 Sudeste 14 Sudeste 0 -- -- 45
2017-09-04 12:00:00 25.6 5 Sur 15 Norte 0 -- -- 45
2017-09-04 11:00:00 22.7 8 Noroeste 23 Norte 0 -- -- 46
2017-09-04 10:00:00 19.3 9 Norte 18 Noroeste 0 -- -- 60
2017-09-04 09:00:00 15.8 4 Noroeste 17 Oeste 0 -- -- 88
2017-09-04 08:00:00 13.3 6 Norte 11 Noroeste 0 -- -- 92
2017-09-04 07:00:00 13.2 4 Noroeste 12 Noroeste 0 -- -- 90
2017-09-04 06:00:00 13.5 5 Norte 12 Noroeste 0 -- -- 90
2017-09-04 05:00:00 14.1 3 Noroeste 12 Oeste 0 -- -- 89
2017-09-04 04:00:00 14.7 5 Noroeste 13 Noroeste 0 -- -- 88
2017-09-04 03:00:00 15.1 5 Noroeste 13 Noroeste 0 -- -- 88
2017-09-04 02:00:00 15.4 4 Noroeste 14 Norte 0 -- -- 87
2017-09-04 01:00:00 16 3 Norte 8 Noroeste 0 -- -- 84
2017-09-04 00:00:00 17.4 3 Norte 7 Norte 0 -- -- 80
2017-09-03 23:00:00 19.4 0 Calma 3 Noroeste 0 -- -- 78
2017-09-03 22:00:00 21.3 0 Calma 5 Este 0 -- -- 75
2017-09-03 21:00:00 23.6 0 Calma 10 Este 0 -- -- 71
2017-09-03 20:00:00 26.7 3 Sur 16 Sur 0 -- -- 62
2017-09-03 19:00:00 30.6 7 Oeste 30 Sudoeste 0 -- -- 26
2017-09-03 18:00:00 31 9 Oeste 29 Noroeste 0 -- -- 25
2017-09-03 17:00:00 30.2 10 Noroeste 27 Oeste 0 -- -- 29
2017-09-03 16:00:00 30 10 Oeste 32 Sudoeste 0 -- -- 33
2017-09-03 15:00:00 29.3 8 Noroeste 25 Noroeste 0 -- -- 34
2017-09-03 14:00:00 27.6 8 Noroeste 22 Noroeste 0 -- -- 36
2017-09-03 13:00:00 24.7 6 Norte 17 Norte 0 -- -- 44
2017-09-03 12:00:00 24.1 6 Noroeste 20 Norte 0 -- -- 44
2017-09-03 11:00:00 21.6 6 Noroeste 18 Noroeste 0 -- -- 61
2017-09-03 10:00:00 18.9 9 Noroeste 23 Noroeste 0 -- -- 83
2017-09-03 09:00:00 15.8 9 Noroeste 21 Noroeste 0 -- -- 93
2017-09-03 08:00:00 13.4 7 Noroeste 18 Noroeste 0 -- -- 95
2017-09-03 07:00:00 13.7 9 Noroeste 19 Norte 0 -- -- 95
2017-09-03 06:00:00 12.8 5 Noroeste 12 Noroeste 0 -- -- 95
2017-09-03 05:00:00 13.2 3 Norte 11 Norte 0 -- -- 93
2017-09-03 04:00:00 13.7 3 Norte 8 Noroeste 0 -- -- 92
2017-09-03 03:00:00 14.1 3 Noroeste 10 Noroeste 0 -- -- 91
2017-09-03 02:00:00 14.3 4 Noroeste 10 Noroeste 0 -- -- 91
2017-09-03 01:00:00 14.8 3 Noroeste 7 Noroeste 0 -- -- 90
2017-09-03 00:00:00 15.5 2 Noroeste 6 Noroeste 0 -- -- 87
2017-09-02 23:00:00 16.3 0 Calma 3 Nordeste 0 -- -- 82
2017-09-02 22:00:00 17.9 0 Calma 5 Nordeste 0 -- -- 76
2017-09-02 21:00:00 19.6 0 Calma 12 Sudeste 0 -- -- 72
2017-09-02 20:00:00 21.5 5 Sudeste 15 Sudeste 0 -- -- 67
2017-09-02 19:00:00 23.6 4 Sudeste 21 Sudeste 0 -- -- 60
2017-09-02 18:00:00 25.4 6 Sudeste 21 Sudeste 0 -- -- 57
2017-09-02 17:00:00 26.3 6 Sudeste 25 Sudeste 0 -- -- 55
2017-09-02 16:00:00 28.2 8 Oeste 24 Sudoeste 0 -- -- 34
2017-09-02 15:00:00 27.1 9 Sudoeste 23 Sudoeste 0 -- -- 41
2017-09-02 14:00:00 25.4 9 Noroeste 30 Oeste 0 -- -- 47
2017-09-02 13:00:00 24.1 10 Noroeste 21 Norte 0 -- -- 53
2017-09-02 12:00:00 22.2 6 Noroeste 16 Noroeste 0 -- -- 58
2017-09-02 11:00:00 20 5 Noroeste 13 Noroeste 0 -- -- 62
2017-09-02 10:00:00 18.6 6 Noroeste 13 Noroeste 0 -- -- 67
2017-09-02 09:00:00 17.2 6 Norte 12 Norte 0 -- -- 72
2017-09-02 08:00:00 16.2 3 Norte 10 Noroeste 0 -- -- 78
2017-09-02 07:00:00 16.8 4 Norte 10 Noroeste 0 -- -- 79
2017-09-02 06:00:00 17.6 4 Noroeste 10 Noroeste 0 -- -- 82
2017-09-02 05:00:00 17.8 0 Calma 4 Sudeste 0 -- -- 89
2017-09-02 04:00:00 18.3 2 Sur 6 Sur 0 -- -- 89
2017-09-02 03:00:00 18.6 0 Calma 12 Este 0 -- -- 90
2017-09-02 02:00:00 18.7 0 Calma 9 Sudeste 0 -- -- 91
2017-09-02 01:00:00 18.9 2 Sudeste 14 Sudeste 0 -- -- 91
2017-09-02 00:00:00 19.2 2 Sudeste 12 Sudeste 0.2 -- -- 91
2017-09-01 23:00:00 19.4 2 Sur 13 Sudeste 0 -- -- 91
2017-09-01 22:00:00 19.7 3 Sudeste 11 Sudeste 0 -- -- 89
2017-09-01 21:00:00 20 4 Sudeste 17 Este 0 -- -- 85
2017-09-01 20:00:00 20.9 7 Sudeste 17 Sur 0 -- -- 82
2017-09-01 19:00:00 21.7 9 Sudeste 22 Sudeste 0 -- -- 69
2017-09-01 18:00:00 22.4 8 Sudeste 24 Sudeste 0 -- -- 65
2017-09-01 17:00:00 22.5 15 Sudeste 27 Este 0 -- -- 66
2017-09-01 16:00:00 22.8 8 Sur 23 Este 0 -- -- 64
2017-09-01 15:00:00 22.2 6 Sur 20 Sudeste 0 -- -- 70
2017-09-01 14:00:00 21.1 6 Sur 18 Sudeste 0 -- -- 74
2017-09-01 13:00:00 20.8 6 Sur 13 Este 0 -- -- 75
2017-09-01 12:00:00 20.8 5 Sur 15 Sudeste 0 -- -- 80
2017-09-01 11:00:00 20.5 6 Sudeste 12 Este 0 -- -- 82
2017-09-01 10:00:00 19 3 Sudeste 10 Sudeste 0 -- -- 91
2017-09-01 09:00:00 17.3 0 Calma 3 Noroeste 0 -- -- 94
2017-09-01 08:00:00 16.5 0 Calma 2 Noroeste 0 -- -- 93
2017-09-01 07:00:00 16.8 0 Calma 3 Noroeste 0 -- -- 92
2017-09-01 06:00:00 17.8 0 Calma 2 Noroeste 0 -- -- 90
2017-09-01 05:00:00 18.8 0 Calma 6 Nordeste 0 -- -- 89
2017-09-01 04:00:00 19.2 0 Calma 7 Este 0 -- -- 89
2017-09-01 03:00:00 19.3 2 Sudeste 12 Sudeste 0 -- -- 89
2017-09-01 02:00:00 19.5 3 Sudeste 11 Sudeste 0 -- -- 90
2017-09-01 01:00:00 19.4 3 Sudeste 16 Sudeste 0 -- -- 90
2017-09-01 00:00:00 19.5 3 Sudeste 13 Sudeste 0 -- -- 89
2017-08-31 23:00:00 20 4 Sudeste 14 Este 0 -- -- 87
2017-08-31 22:00:00 20.4 6 Sudeste 21 Sudeste 0 -- -- 87
2017-08-31 21:00:00 21.2 9 Sudeste 22 Este 0 -- -- 86
2017-08-31 20:00:00 22.8 9 Sudeste 21 Sudeste 0 -- -- 79
2017-08-31 19:00:00 23.9 8 Sudeste 18 Sudeste 0 -- -- 71
2017-08-31 18:00:00 24 9 Sudeste 22 Sudeste 0 -- -- 72
2017-08-31 17:00:00 23.7 7 Sudeste 20 Sudeste 0 -- -- 73
2017-08-31 16:00:00 25 7 Sur 23 Sudeste 0 -- -- 65
2017-08-31 15:00:00 24 12 Sudeste 27 Sudeste 0 -- -- 66
2017-08-31 14:00:00 24.9 9 Sudeste 25 Este 0 -- -- 63
2017-08-31 13:00:00 23.3 4 Sur 13 Sur 0 -- -- 69
2017-08-31 12:00:00 21.4 4 Sudeste 14 Sudeste 0 -- -- 80
2017-08-31 11:00:00 20.9 6 Sudeste 15 Sudeste 0 -- -- 76
2017-08-31 10:00:00 19.5 3 Norte 10 Noroeste 0 -- -- 81
2017-08-31 09:00:00 17.7 4 Noroeste 12 Noroeste 0 -- -- 88
2017-08-31 08:00:00 17.2 6 Norte 13 Norte 0 -- -- 89
2017-08-31 07:00:00 17.2 5 Noroeste 12 Noroeste 0 -- -- 88
2017-08-31 06:00:00 16.9 5 Noroeste 12 Norte 0 -- -- 90
2017-08-31 05:00:00 17 4 Noroeste 10 Noroeste 0 -- -- 92
2017-08-31 04:00:00 17.5 4 Noroeste 8 Noroeste 0.2 -- -- 90
2017-08-31 03:00:00 18.5 0 Calma 15 Noroeste 0 -- -- 81
2017-08-31 02:00:00 18.3 6 Noroeste 14 Noroeste 0 -- -- 81
2017-08-31 01:00:00 17.9 7 Noroeste 13 Noroeste 0 -- -- 82
2017-08-31 00:00:00 18.1 5 Noroeste 12 Norte 0 -- -- 80
2017-08-30 23:00:00 18.6 4 Noroeste 9 Norte 0 -- -- 79
2017-08-30 22:00:00 19.8 4 Noroeste 9 Noroeste 0 -- -- 75
2017-08-30 21:00:00 21.6 0 Calma 9 Oeste 0 -- -- 68
2017-08-30 20:00:00 23.4 5 Oeste 15 Oeste 0 -- -- 58
2017-08-30 19:00:00 24.3 5 Noroeste 20 Oeste 0 -- -- 57
2017-08-30 18:00:00 23.7 5 Oeste 14 Oeste 0 -- -- 61
2017-08-30 17:00:00 23 7 Noroeste 17 Oeste 0 -- -- 64
2017-08-30 16:00:00 22.8 6 Oeste 27 Noroeste 0 -- -- 67
2017-08-30 15:00:00 21.6 12 Noroeste 27 Oeste 0 -- -- 72
2017-08-30 14:00:00 20.8 10 Noroeste 33 Noroeste 0 -- -- 78
2017-08-30 13:00:00 19.7 8 Noroeste 20 Noroeste 0 -- -- 85
2017-08-30 12:00:00 18.7 5 Noroeste 14 Noroeste 0 -- -- 89
2017-08-30 11:00:00 17.4 4 Norte 14 Oeste 0 -- -- 93
2017-08-30 10:00:00 16.9 0 Calma 6 Sudeste 0 -- -- 97
2017-08-30 09:00:00 16.5 0 Calma 10 Este 0 -- -- 98
2017-08-30 08:00:00 16 2 Norte 7 Norte 0 -- -- 98
2017-08-30 07:00:00 16.2 0 Calma 6 Sudoeste 0 -- -- 98
2017-08-30 06:00:00 16 0 Calma 4 Este 0 -- -- 97
2017-08-30 05:00:00 16.3 0 Calma 6 Sudeste 0 -- -- 97
2017-08-30 04:00:00 16.5 0 Calma 13 Sudeste 0 -- -- 97
2017-08-30 03:00:00 16.6 2 Este 27 Sudeste 0 -- -- 97
2017-08-30 02:00:00 16.8 9 Sudeste 20 Sudeste 1.2 -- -- 98
2017-08-30 01:00:00 16.7 2 Sudeste 16 Sudeste 2.2 -- -- 98
2017-08-30 00:00:00 16.3 6 Sudeste 14 Sudeste 5.2 -- -- 97
2017-08-29 23:00:00 16.3 3 Sur 7 Nordeste 1 -- -- 98
2017-08-29 22:00:00 16.1 0 Calma 3 Noroeste 0 -- -- 97
2017-08-29 21:00:00 16.2 0 Calma 8 Norte 0 -- -- 97
2017-08-29 20:00:00 16.1 3 Noroeste 25 Noroeste 1.6 -- -- 97
2017-08-29 19:00:00 16.5 7 Noroeste 27 Oeste 3.2 -- -- 96
2017-08-29 18:00:00 16.8 4 Norte 29 Sudoeste 2.4 -- -- 95
2017-08-29 17:00:00 17.7 5 Oeste 28 Sudoeste 1 -- -- 89
2017-08-29 16:00:00 17.5 5 Sudoeste 29 Sudoeste 2.4 -- -- 93
2017-08-29 15:00:00 18.2 10 Oeste 26 Noroeste 1.6 -- -- 89
2017-08-29 14:00:00 20.1 5 Sur 20 Sudeste 0.4 -- -- 88
2017-08-29 13:00:00 21.7 6 Sudeste 17 Este 0 -- -- 87
2017-08-29 12:00:00 20.9 3 Sur 10 Sudeste 0 -- -- 89
2017-08-29 11:00:00 20.1 0 Calma 9 Sudeste 0 -- -- 97
2017-08-29 10:00:00 18.7 0 Calma 4 Noroeste 0 -- -- 97
2017-08-29 09:00:00 16.8 0 Calma 9 Noroeste 0 -- -- 97
2017-08-29 08:00:00 16.7 3 Norte 6 Noroeste 0 -- -- 97
2017-08-29 07:00:00 16.8 0 Calma 6 Norte 0 -- -- 96
2017-08-29 06:00:00 16.8 3 Sur 8 Sur 1.2 -- -- 95
2017-08-29 05:00:00 16.3 2 Sur 13 Noroeste 0.6 -- -- 92
2017-08-29 04:00:00 16.6 3 Norte 9 Norte 0 -- -- 83
2017-08-29 03:00:00 16.7 2 Noroeste 10 Noroeste 0 -- -- 82
2017-08-29 02:00:00 17.2 0 Calma 9 Norte 0 -- -- 81
2017-08-29 01:00:00 17.9 3 Noroeste 10 Noroeste 0 -- -- 79
2017-08-29 00:00:00 19 7 Noroeste 13 Noroeste 0 -- -- 76
2017-08-28 23:00:00 20.1 3 Norte 13 Norte 0 -- -- 73
2017-08-28 22:00:00 21.4 6 Norte 24 Oeste 0 -- -- 70
2017-08-28 21:00:00 22.9 5 Oeste 20 Noroeste 0 -- -- 75
2017-08-28 20:00:00 23.5 0 Calma 9 Este 0 -- -- 82
2017-08-28 19:00:00 23.6 0 Calma 15 Este 0 -- -- 82
2017-08-28 18:00:00 23.8 4 Sur 17 Sudeste 0.2 -- -- 83
2017-08-28 17:00:00 23.9 5 Sur 15 Sur 0 -- -- 82
2017-08-28 16:00:00 25.1 9 Sudeste 23 Sudeste 0.2 -- -- 77
2017-08-28 15:00:00 26.7 6 Sudeste 18 Sudeste 0 -- -- 60
2017-08-28 14:00:00 25.7 4 Sur 13 Sur 0.6 -- -- 73
2017-08-28 13:00:00 25.9 6 Sur 24 Sudeste 0 -- -- 63
2017-08-28 12:00:00 26.2 5 Sur 24 Sudeste 0 -- -- 60
2017-08-28 11:00:00 25.7 7 Sudeste 21 Sudeste 0 -- -- 61
2017-08-28 10:00:00 24 8 Sudeste 16 Sudeste 0 -- -- 65
2017-08-28 09:00:00 19.5 3 Norte 6 Norte 0 -- -- 78
2017-08-28 08:00:00 18.2 5 Noroeste 17 Noroeste 0 -- -- 81
2017-08-28 07:00:00 17.9 4 Noroeste 10 Noroeste 0 -- -- 83
2017-08-28 06:00:00 18.1 0 Calma 7 Norte 0 -- -- 86
2017-08-28 05:00:00 18.8 2 Noroeste 5 Noroeste 0 -- -- 86
2017-08-28 04:00:00 20.6 0 Calma 2 Nordeste 0 -- -- 86
2017-08-28 03:00:00 21.8 0 Calma 12 Sudeste 0 -- -- 89
2017-08-28 02:00:00 22.6 4 Sudeste 13 Sudeste 0 -- -- 90
2017-08-28 01:00:00 22.7 2 Sur 10 Este 0 -- -- 86
2017-08-28 00:00:00 22.3 4 Sudeste 13 Sudeste 0 -- -- 85
2017-08-27 23:00:00 22.2 0 Calma 6 Este 0 -- -- 59
2017-08-27 22:00:00 24.2 0 Calma 13 Sudeste 0 -- -- 52
2017-08-27 21:00:00 25.4 4 Norte 24 Norte 0 -- -- 47
2017-08-27 20:00:00 26.6 6 Noroeste 22 Noroeste 0 -- -- 46
2017-08-27 19:00:00 26.9 6 Norte 20 Noroeste 0 -- -- 51
2017-08-27 18:00:00 26.6 4 Sur 9 Sudeste 0 -- -- 68
2017-08-27 17:00:00 26.7 4 Sudeste 12 Sudeste 0 -- -- 66
2017-08-27 16:00:00 27.1 5 Sudeste 13 Sudeste 0 -- -- 65
2017-08-27 15:00:00 25.9 6 Sudeste 13 Sudeste 0 -- -- 71
2017-08-27 14:00:00 25.6 3 Sur 13 Sudeste 0 -- -- 67
2017-08-27 13:00:00 26.3 4 Sur 19 Sudeste 0 -- -- 63
2017-08-27 12:00:00 25.6 6 Sudeste 19 Este 0 -- -- 68
2017-08-27 11:00:00 25.1 4 Sur 13 Sur 0 -- -- 70
2017-08-27 10:00:00 20.6 0 Calma 5 Norte 0 -- -- 83
2017-08-27 09:00:00 18.8 3 Norte 6 Noroeste 0 -- -- 86
2017-08-27 08:00:00 17.5 4 Norte 9 Norte 0 -- -- 89
2017-08-27 07:00:00 17.9 4 Noroeste 8 Norte 0 -- -- 89
2017-08-27 06:00:00 18.8 4 Norte 9 Noroeste 0 -- -- 88
2017-08-27 05:00:00 20 3 Noroeste 8 Noroeste 0 -- -- 85
2017-08-27 04:00:00 20.6 0 Calma 8 Sur 0 -- -- 83
2017-08-27 03:00:00 20.9 3 Sur 7 Sur 0 -- -- 82
2017-08-27 02:00:00 21.6 0 Calma 13 Norte 0 -- -- 82
2017-08-27 01:00:00 22.4 5 Noroeste 26 Noroeste 0 -- -- 80
2017-08-27 00:00:00 22.4 3 Sudeste 15 Sur 0 -- -- 86
2017-08-26 23:00:00 22.7 3 Sudeste 10 Sudeste 0 -- -- 84
2017-08-26 22:00:00 23.3 4 Sudeste 10 Sudeste 0 -- -- 80
2017-08-26 21:00:00 24 3 Sur 9 Sudeste 0 -- -- 72
2017-08-26 20:00:00 24.8 0 Calma 16 Este 0 -- -- 66
2017-08-26 19:00:00 25.9 9 Sudeste 21 Sudeste 0 -- -- 62
2017-08-26 18:00:00 26.6 8 Sudeste 25 Este 0 -- -- 64
2017-08-26 17:00:00 27.9 9 Sudeste 24 Sudeste 0 -- -- 62
2017-08-26 16:00:00 29.9 10 Sudeste 29 Sudeste 0 -- -- 56
2017-08-26 15:00:00 30.5 13 Sudeste 30 Este 0 -- -- 54
2017-08-26 14:00:00 30.5 10 Sudeste 22 Sudeste 0 -- -- 52
2017-08-26 13:00:00 29.3 6 Sudeste 18 Sudeste 0 -- -- 55
2017-08-26 12:00:00 27.6 5 Sudeste 12 Sudeste 0 -- -- 60
2017-08-26 11:00:00 25.6 4 Sur 9 Sur 0 -- -- 69
2017-08-26 10:00:00 22.1 3 Sur 6 Sur 0 -- -- 80
2017-08-26 09:00:00 18.3 0 Calma 8 Norte 0 -- -- 87
2017-08-26 08:00:00 16.9 3 Norte 9 Noroeste 0 -- -- 88
2017-08-26 07:00:00 17.4 3 Noroeste 8 Norte 0 -- -- 88
2017-08-26 06:00:00 17.7 4 Noroeste 10 Norte 0 -- -- 88
2017-08-26 05:00:00 17.7 0 Calma 5 Noroeste 0 -- -- 85
2017-08-26 04:00:00 18.4 2 Noroeste 6 Noroeste 0 -- -- 86
2017-08-26 03:00:00 19.6 0 Calma 3 Este 0 -- -- 89
2017-08-26 02:00:00 20.9 0 Calma 5 Este 0 -- -- 89
2017-08-26 01:00:00 21.5 4 Este 12 Sudeste 0 -- -- 90
2017-08-26 00:00:00 21.6 4 Sur 14 Sudeste 0 -- -- 90
2017-08-25 23:00:00 22.1 6 Sudeste 21 Sudeste 0 -- -- 89
2017-08-25 22:00:00 22.2 2 Norte 10 Este 0 -- -- 85
2017-08-25 21:00:00 23.2 6 Sudeste 18 Sudeste 0.2 -- -- 84
2017-08-25 20:00:00 24.4 0 Calma 8 Este 0 -- -- 78
2017-08-25 19:00:00 25.7 4 Sudeste 21 Sudeste 0 -- -- 66
2017-08-25 18:00:00 27.8 12 Sudeste 26 Sudeste 0 -- -- 60
2017-08-25 17:00:00 29.3 12 Sudeste 23 Sudeste 0 -- -- 59
2017-08-25 16:00:00 28.9 6 Sudeste 22 Este 0 -- -- 52
2017-08-25 15:00:00 28.5 10 Sudeste 24 Este 0 -- -- 55
2017-08-25 14:00:00 29.2 5 Sudeste 15 Sudeste 0 -- -- 51
2017-08-25 13:00:00 27.7 6 Sudeste 17 Este 0 -- -- 57
2017-08-25 12:00:00 25.8 8 Sudeste 17 Sudeste 0 -- -- 64
2017-08-25 11:00:00 23.9 4 Sur 11 Sudeste 0 -- -- 70
2017-08-25 10:00:00 19.9 2 Sur 6 Sur 0 -- -- 87
2017-08-25 09:00:00 15.5 0 Calma 6 Noroeste 0 -- -- 77
2017-08-25 08:00:00 14.5 3 Norte 8 Noroeste 0 -- -- 81
2017-08-25 07:00:00 14.6 3 Norte 10 Noroeste 0 -- -- 83
2017-08-25 06:00:00 15 4 Norte 7 Norte 0 -- -- 83
2017-08-25 05:00:00 15.4 3 Norte 6 Norte 0 -- -- 82
2017-08-25 04:00:00 15.8 3 Norte 7 Noroeste 0 -- -- 80
2017-08-25 03:00:00 16.4 0 Calma 3 Noroeste 0 -- -- 76
2017-08-25 02:00:00 17.1 0 Calma 6 Noroeste 0 -- -- 70
2017-08-25 01:00:00 18.1 0 Calma 5 Norte 0 -- -- 66
2017-08-25 00:00:00 19.5 2 Noroeste 4 Norte 0 -- -- 71
2017-08-24 23:00:00 21 0 Calma 2 Sudeste 0 -- -- 72
2017-08-24 22:00:00 22.7 0 Calma 7 Sudeste 0 -- -- 69
2017-08-24 21:00:00 24 3 Sudeste 16 Sudeste 0 -- -- 67
2017-08-24 20:00:00 25.8 9 Sudeste 19 Sudeste 0 -- -- 66
2017-08-24 19:00:00 27.8 7 Sudeste 24 Sudeste 0 -- -- 59
2017-08-24 18:00:00 28.6 7 Sudeste 30 Sudeste 0 -- -- 59
2017-08-24 17:00:00 30 6 Sudeste 24 Este 0 -- -- 56
2017-08-24 16:00:00 30.3 12 Sudeste 23 Sudeste 0 -- -- 54
2017-08-24 15:00:00 30.5 9 Sudeste 22 Sudeste 0 -- -- 48
2017-08-24 14:00:00 29 11 Sudeste 26 Sudeste 0 -- -- 53
2017-08-24 13:00:00 27.4 8 Sudeste 22 Sudeste 0 -- -- 57
2017-08-24 12:00:00 26.3 5 Sudeste 16 Sudeste 0 -- -- 58
2017-08-24 11:00:00 24 5 Sudeste 13 Sudeste 0 -- -- 69
2017-08-24 10:00:00 20.3 2 Sur 5 Sur 0 -- -- 87
2017-08-24 09:00:00 17.1 0 Calma 5 Noroeste 0 -- -- 86
2017-08-24 08:00:00 15.4 0 Calma 4 Noroeste 0 -- -- 86
2017-08-24 07:00:00 14.4 0 Calma 3 Noroeste 0 -- -- 88
2017-08-24 06:00:00 14.6 0 Calma 7 Noroeste 0 -- -- 87
2017-08-24 05:00:00 15.2 3 Noroeste 8 Noroeste 0 -- -- 86
2017-08-24 04:00:00 15.9 3 Noroeste 8 Noroeste 0 -- -- 84
2017-08-24 03:00:00 16.6 3 Noroeste 8 Norte 0 -- -- 81
2017-08-24 02:00:00 17.3 3 Noroeste 7 Noroeste 0 -- -- 82
2017-08-24 01:00:00 19.1 0 Calma 4 Noroeste 0 -- -- 83
2017-08-24 00:00:00 20.8 0 Calma 4 Este 0 -- -- 82